Time;durP1;ratioP1;P1;durP2;ratioP2;P2;SDS_P1;SDS_P2;PMS_P1;PMS_P2;Temp;Humidity;BMP_temperature;BMP_pressure;BME280_temperature;BME280_humidity;BME280_pressure;Samples;Min_cycle;Max_cycle;Signal;HPM_P1;HPM_P2
2021/05/28 00:00:19;;;;;;;5.62;4.67;;;;;;;14.12;71.23;98675.66;1762785;80;21036;-72
2021/05/28 00:02:47;;;;;;;6.30;4.50;;;;;;;14.14;71.38;98676.61;1758567;80;21174;-74
2021/05/28 00:05:13;;;;;;;6.17;4.45;;;;;;;14.16;71.55;98672.88;1768434;80;21095;-70
2021/05/28 00:07:39;;;;;;;6.47;4.75;;;;;;;14.18;71.58;98674.56;1767991;80;21146;-70
2021/05/28 00:10:06;;;;;;;6.97;6.20;;;;;;;14.17;71.69;98675.77;1763328;80;21533;-72
2021/05/28 00:12:32;;;;;;;8.83;6.50;;;;;;;14.17;72.34;98678.50;1757595;80;21072;-74
2021/05/28 00:14:57;;;;;;;7.83;6.03;;;;;;;14.14;72.94;98673.88;1765504;80;21608;-72
2021/05/28 00:17:23;;;;;;;9.15;6.95;;;;;;;14.11;73.29;98673.37;1765665;80;21666;-73
2021/05/28 00:19:49;;;;;;;8.03;6.15;;;;;;;14.07;73.64;98663.09;1762984;80;21584;-74
2021/05/28 00:22:15;;;;;;;6.78;6.08;;;;;;;14.06;73.91;98677.95;1745485;80;21052;-71
2021/05/28 00:24:41;;;;;;;8.03;6.17;;;;;;;14.03;73.98;98673.33;1764006;80;21044;-71
2021/05/28 00:27:06;;;;;;;6.60;5.30;;;;;;;14.00;73.81;98664.02;1753791;81;21037;-71
2021/05/28 00:29:32;;;;;;;5.72;5.20;;;;;;;13.97;73.78;98662.90;1771352;80;21060;-73
2021/05/28 00:31:58;;;;;;;5.85;5.30;;;;;;;13.92;73.57;98659.29;1784703;80;21036;-71
2021/05/28 00:34:24;;;;;;;7.03;5.47;;;;;;;13.90;73.25;98654.08;1780097;80;21064;-72
2021/05/28 00:36:49;;;;;;;5.72;5.08;;;;;;;13.90;73.25;98654.08;1753763;81;21056;-72
2021/05/28 00:39:15;;;;;;;6.12;5.05;;;;;;;13.92;73.22;98656.56;1753727;81;21512;-73
2021/05/28 00:41:41;;;;;;;6.08;5.20;;;;;;;13.95;72.84;98652.22;1753816;81;21035;-71
2021/05/28 00:44:07;;;;;;;6.15;5.45;;;;;;;13.93;72.59;98654.00;1753523;82;21666;-70
2021/05/28 00:46:33;;;;;;;6.58;5.37;;;;;;;13.94;72.35;98648.73;1753910;81;21878;-69
2021/05/28 00:48:58;;;;;;;5.30;4.80;;;;;;;13.97;72.22;98653.34;1753578;82;21448;-71
2021/05/28 00:51:24;;;;;;;6.00;5.40;;;;;;;14.01;72.04;98651.14;1758857;80;21600;-71
2021/05/28 00:53:50;;;;;;;6.67;5.08;;;;;;;14.03;71.73;98650.89;1702956;83;21055;-71
2021/05/28 00:56:16;;;;;;;7.78;5.50;;;;;;;14.03;71.60;98648.77;1780710;80;21036;-72
2021/05/28 00:58:42;;;;;;;5.40;4.90;;;;;;;14.01;70.77;98640.22;1756699;80;21095;-73
2021/05/28 01:01:08;;;;;;;5.90;5.20;;;;;;;14.01;70.77;98640.22;1753607;82;21123;-71
2021/05/28 01:03:34;;;;;;;6.80;5.10;;;;;;;14.08;70.89;98648.27;1761314;80;21652;-71
2021/05/28 01:06:00;;;;;;;5.85;5.22;;;;;;;14.09;70.87;98645.10;1769521;80;21029;-72
2021/05/28 01:08:26;;;;;;;6.45;5.42;;;;;;;14.08;70.83;98650.40;1761309;80;21081;-72
2021/05/28 01:10:51;;;;;;;5.97;5.37;;;;;;;14.10;71.07;98654.82;1763029;80;21555;-71
2021/05/28 01:13:17;;;;;;;6.25;5.55;;;;;;;14.11;70.88;98652.88;1742721;80;21040;-70
2021/05/28 01:15:43;;;;;;;6.70;5.17;;;;;;;14.13;70.79;98654.58;1767068;80;21101;-73
2021/05/28 01:18:09;;;;;;;5.80;5.20;;;;;;;14.13;70.65;98656.73;1756932;80;21090;-70
2021/05/28 01:20:35;;;;;;;6.95;5.58;;;;;;;14.15;70.61;98659.03;1762726;80;21071;-73
2021/05/28 01:23:01;;;;;;;7.28;6.10;;;;;;;14.13;70.71;98665.50;1768360;80;21081;-74
2021/05/28 01:25:27;;;;;;;7.40;6.00;;;;;;;14.14;70.97;98668.42;1761854;80;21572;-73
2021/05/28 01:27:53;;;;;;;6.10;5.50;;;;;;;14.14;71.28;98667.82;1761076;80;21135;-72
2021/05/28 01:30:19;;;;;;;6.37;5.83;;;;;;;14.14;71.67;98666.45;1766428;80;21610;-71
2021/05/28 01:32:44;;;;;;;8.45;6.95;;;;;;;14.14;72.00;98664.33;1767039;80;21601;-73
2021/05/28 01:35:12;;;;;;;7.53;6.83;;;;;;;14.13;72.42;98664.13;1761622;80;21020;-71
2021/05/28 01:37:37;;;;;;;10.18;7.72;;;;;;;14.08;72.81;98660.56;1764711;80;21613;-72
2021/05/28 01:40:04;;;;;;;7.35;5.95;;;;;;;14.01;73.19;98654.63;1765941;80;20998;-71
2021/05/28 01:42:30;;;;;;;7.17;6.45;;;;;;;13.98;72.96;98660.94;1738906;80;21640;-73
2021/05/28 01:44:58;;;;;;;6.92;6.22;;;;;;;13.97;72.93;98666.23;1765481;80;21036;-71
2021/05/28 01:47:24;;;;;;;6.80;6.20;;;;;;;13.94;72.50;98659.65;1767108;80;21020;-72
2021/05/28 01:49:50;;;;;;;7.53;6.72;;;;;;;13.92;72.17;98668.08;1764649;80;21077;-71
2021/05/28 01:52:16;;;;;;;8.68;7.78;;;;;;;13.89;72.21;98669.69;1757841;80;21024;-71
2021/05/28 01:54:41;;;;;;;8.20;7.40;;;;;;;13.87;72.28;98664.47;1753137;80;21123;-71
2021/05/28 01:57:08;;;;;;;8.98;7.30;;;;;;;13.82;72.39;98669.81;1763268;80;21054;-71
2021/05/28 01:59:34;;;;;;;9.00;8.10;;;;;;;13.76;72.64;98670.14;1767507;80;21625;-71
2021/05/28 02:02:00;;;;;;;9.58;8.63;;;;;;;13.70;72.75;98669.85;1768392;80;20996;-72
2021/05/28 02:04:25;;;;;;;9.20;8.30;;;;;;;13.66;72.98;98670.50;1763423;80;21664;-71
2021/05/28 02:06:51;;;;;;;9.40;8.40;;;;;;;13.65;73.08;98673.06;1763850;80;21142;-71
2021/05/28 02:09:17;;;;;;;9.03;8.23;;;;;;;13.65;73.18;98678.52;1761916;80;21097;-71
2021/05/28 02:11:43;;;;;;;10.15;9.10;;;;;;;13.65;73.35;98683.98;1757254;80;21030;-71
2021/05/28 02:14:09;;;;;;;10.08;9.05;;;;;;;13.65;73.47;98694.89;1777097;80;22117;-71
2021/05/28 02:16:34;;;;;;;10.03;9.00;;;;;;;13.66;73.55;98692.92;1765591;80;21021;-71
2021/05/28 02:19:01;;;;;;;11.00;9.80;;;;;;;13.65;73.62;98699.58;1766915;80;21085;-71
2021/05/28 02:21:28;;;;;;;11.75;10.13;;;;;;;13.65;73.57;98698.98;1762150;80;21029;-74
2021/05/28 02:23:54;;;;;;;10.72;9.53;;;;;;;13.64;73.56;98700.19;1767552;80;21168;-72
2021/05/28 02:26:19;;;;;;;10.88;9.78;;;;;;;13.67;73.53;98700.70;1765781;80;21141;-74
2021/05/28 02:28:45;;;;;;;11.63;9.68;;;;;;;13.67;73.55;98697.98;1765256;80;21087;-71
2021/05/28 02:31:11;;;;;;;10.65;9.65;;;;;;;13.68;73.63;98699.52;1768375;80;21059;-73
2021/05/28 02:33:37;;;;;;;11.15;10.15;;;;;;;13.70;73.65;98699.11;1769944;80;21581;-71
2021/05/28 02:36:04;;;;;;;11.22;10.10;;;;;;;13.69;73.65;98705.73;1769888;80;21067;-71
2021/05/28 02:38:30;;;;;;;11.12;10.03;;;;;;;13.69;73.69;98713.92;1772053;80;21533;-72
2021/05/28 02:40:55;;;;;;;12.53;10.13;;;;;;;13.70;73.95;98710.02;1770645;80;21019;-70
2021/05/28 02:43:21;;;;;;;11.00;9.90;;;;;;;13.72;73.98;98709.78;1770175;80;21049;-72
2021/05/28 02:45:47;;;;;;;10.65;9.55;;;;;;;13.73;73.89;98714.64;1767487;80;21432;-72
2021/05/28 02:48:13;;;;;;;10.00;9.10;;;;;;;13.72;73.62;98716.61;1765617;80;21679;-70
2021/05/28 02:50:38;;;;;;;11.33;9.53;;;;;;;13.73;73.62;98724.95;1775754;80;21045;-72
2021/05/28 02:53:04;;;;;;;10.80;9.70;;;;;;;13.76;73.71;98730.17;1769958;80;21025;-71
2021/05/28 02:55:30;;;;;;;12.10;9.85;;;;;;;13.77;73.76;98733.07;1772077;80;21025;-71
2021/05/28 02:57:56;;;;;;;10.65;9.50;;;;;;;13.77;73.88;98736.56;1747788;80;21095;-70
2021/05/28 03:00:22;;;;;;;10.35;9.28;;;;;;;13.78;74.13;98738.73;1764912;80;21097;-71
2021/05/28 03:02:49;;;;;;;10.23;9.23;;;;;;;13.79;74.11;98744.95;1770324;80;21677;-73
2021/05/28 03:05:14;;;;;;;10.32;9.33;;;;;;;13.78;74.06;98740.09;1764087;80;21081;-73
2021/05/28 03:07:40;;;;;;;10.18;9.13;;;;;;;13.79;74.14;98750.41;1776169;80;21468;-73
2021/05/28 03:10:07;;;;;;;9.90;8.90;;;;;;;13.80;74.11;98752.70;1768132;80;21589;-71
2021/05/28 03:12:32;;;;;;;9.33;8.25;;;;;;;13.80;73.94;98747.84;1773078;80;21571;-72
2021/05/28 03:14:58;;;;;;;9.30;8.40;;;;;;;13.78;73.66;98751.00;1766917;80;21068;-73
2021/05/28 03:17:24;;;;;;;9.68;8.60;;;;;;;13.76;73.61;98749.28;1774102;80;21004;-74
2021/05/28 03:19:50;;;;;;;10.70;9.40;;;;;;;13.75;73.48;98757.30;1767530;80;21067;-71
2021/05/28 03:22:32;;;;;;;9.65;8.68;;;;;;;13.72;73.44;98758.91;1763680;80;21012;-73
2021/05/28 03:25:01;;;;;;;9.75;8.75;;;;;;;13.72;73.46;98757.54;1763286;80;21175;-70
2021/05/28 03:27:26;;;;;;;9.45;8.50;;;;;;;13.70;73.49;98753.69;1764592;80;21130;-69
2021/05/28 03:29:52;;;;;;;10.10;9.03;;;;;;;13.72;73.49;98755.38;1766558;80;21400;-72
2021/05/28 03:32:18;;;;;;;10.13;9.13;;;;;;;13.73;73.54;98761.03;1771028;80;21052;-73
2021/05/28 03:34:44;;;;;;;10.72;8.98;;;;;;;13.73;73.45;98765.89;1764115;80;21138;-72
2021/05/28 03:37:10;;;;;;;10.15;8.28;;;;;;;13.71;73.48;98754.61;1766051;80;20989;-69
2021/05/28 03:39:36;;;;;;;10.38;8.83;;;;;;;13.67;73.50;98755.28;1729473;80;21163;-73
2021/05/28 03:42:01;;;;;;;11.68;8.28;;;;;;;13.62;73.58;98755.76;1771063;80;21039;-72
2021/05/28 03:44:27;;;;;;;9.23;8.10;;;;;;;13.57;73.62;98753.50;1769770;80;21461;-71
2021/05/28 03:46:54;;;;;;;9.18;8.15;;;;;;;13.53;73.58;98748.11;1768679;80;21943;-70
2021/05/28 03:49:20;;;;;;;8.28;7.47;;;;;;;13.51;73.75;98760.63;1764167;80;21433;-73
2021/05/28 03:51:45;;;;;;;8.25;7.10;;;;;;;13.49;73.63;98762.39;1764863;80;21172;-72
2021/05/28 03:54:11;;;;;;;9.33;7.30;;;;;;;13.47;73.40;98768.84;1769839;80;21064;-73
2021/05/28 03:56:37;;;;;;;7.67;6.87;;;;;;;13.45;73.24;98769.88;1762560;80;20984;-73
2021/05/28 03:59:03;;;;;;;7.97;7.17;;;;;;;13.46;72.98;98774.73;1766617;80;21088;-73
2021/05/28 04:01:29;;;;;;;8.98;6.92;;;;;;;13.49;72.97;98777.40;1767765;80;21077;-72
2021/05/28 04:03:55;;;;;;;9.15;7.60;;;;;;;13.52;72.93;98777.93;1769274;80;21079;-71
2021/05/28 04:06:21;;;;;;;9.28;7.50;;;;;;;13.53;72.85;98783.58;1763012;80;21072;-71
2021/05/28 04:08:46;;;;;;;8.48;7.67;;;;;;;13.54;72.92;98781.62;1763812;80;21089;-73
2021/05/28 04:11:12;;;;;;;9.68;8.68;;;;;;;13.54;73.08;98783.75;1763650;80;21020;-71
2021/05/28 04:13:38;;;;;;;9.50;8.33;;;;;;;13.55;73.29;98778.45;1765785;80;21001;-70
2021/05/28 04:16:04;;;;;;;11.08;9.53;;;;;;;13.59;73.31;98787.97;1766935;80;21027;-71
2021/05/28 04:18:30;;;;;;;10.98;9.93;;;;;;;13.67;73.45;98791.36;1770961;80;21036;-72
2021/05/28 04:20:55;;;;;;;10.55;9.50;;;;;;;13.74;73.40;98800.77;1765076;80;20987;-70
2021/05/28 04:23:21;;;;;;;10.58;9.48;;;;;;;13.79;73.42;98799.53;1757819;80;20992;-72
2021/05/28 04:25:47;;;;;;;9.65;8.75;;;;;;;13.76;73.45;98793.71;1753448;81;21100;-74
2021/05/28 04:28:13;;;;;;;10.85;9.03;;;;;;;13.90;73.45;98808.31;1747770;81;21195;-71
2021/05/28 04:30:39;;;;;;;9.43;8.53;;;;;;;13.94;73.30;98814.47;1753625;81;21087;-71
2021/05/28 04:33:05;;;;;;;9.65;8.50;;;;;;;13.96;73.20;98809.37;1750856;81;20997;-71
2021/05/28 04:35:31;;;;;;;8.40;7.58;;;;;;;13.99;72.82;98805.80;1750137;81;21095;-71
2021/05/28 04:37:56;;;;;;;8.50;7.72;;;;;;;14.01;72.72;98808.12;1752491;81;21012;-74
2021/05/28 04:40:22;;;;;;;9.03;7.90;;;;;;;14.02;72.63;98806.92;1751443;81;21028;-71
2021/05/28 04:42:48;;;;;;;8.63;7.37;;;;;;;14.02;72.74;98806.33;1751717;81;21524;-71
2021/05/28 04:45:14;;;;;;;8.83;7.28;;;;;;;14.01;72.67;98808.89;1755375;81;21119;-71
2021/05/28 04:47:39;;;;;;;7.70;7.00;;;;;;;13.96;72.69;98812.09;1749455;80;21087;-70
2021/05/28 04:50:05;;;;;;;7.47;6.78;;;;;;;13.92;72.75;98805.94;1753246;81;21107;-74
2021/05/28 04:52:31;;;;;;;8.10;6.70;;;;;;;13.86;72.77;98808.38;1747770;81;21053;-73
2021/05/28 04:54:57;;;;;;;7.53;6.80;;;;;;;13.81;72.85;98807.48;1752625;81;21135;-74
2021/05/28 04:57:23;;;;;;;7.55;6.30;;;;;;;13.78;72.85;98817.88;1760929;81;21078;-72
2021/05/28 04:59:49;;;;;;;7.35;6.08;;;;;;;13.76;72.91;98817.52;1757634;81;21079;-73
2021/05/28 05:02:14;;;;;;;6.60;6.00;;;;;;;13.76;72.84;98816.91;1745979;82;21028;-72
2021/05/28 05:04:40;;;;;;;8.30;6.25;;;;;;;13.83;72.81;98820.13;1750558;81;21107;-73
2021/05/28 05:07:06;;;;;;;7.62;5.72;;;;;;;13.83;72.81;98820.13;1751472;81;21044;-71
2021/05/28 05:09:32;;;;;;;6.30;5.70;;;;;;;13.85;72.58;98822.43;1750510;81;21093;-73
2021/05/28 05:11:57;;;;;;;7.08;5.72;;;;;;;13.90;72.56;98826.82;1749471;81;21017;-71
2021/05/28 05:14:23;;;;;;;5.97;5.35;;;;;;;13.91;72.37;98827.02;1750813;81;21119;-69
2021/05/28 05:16:49;;;;;;;6.40;5.80;;;;;;;13.95;72.30;98833.17;1751326;81;21105;-72
2021/05/28 05:19:15;;;;;;;6.75;6.08;;;;;;;13.94;72.27;98829.48;1747767;81;21064;-71
2021/05/28 05:21:40;;;;;;;6.65;6.00;;;;;;;13.94;72.18;98832.21;1754569;81;21036;-69
2021/05/28 05:24:07;;;;;;;7.17;6.30;;;;;;;14.01;72.33;98832.70;1754836;80;21615;-73
2021/05/28 05:26:33;;;;;;;6.55;5.95;;;;;;;14.14;72.14;98831.67;1771468;80;20983;-71
2021/05/28 05:28:59;;;;;;;6.30;5.70;;;;;;;14.25;71.86;98840.28;1758258;80;21584;-71
2021/05/28 05:31:25;;;;;;;6.92;6.25;;;;;;;14.32;71.72;98832.73;1729514;80;21020;-70
2021/05/28 05:33:51;;;;;;;6.33;5.70;;;;;;;14.41;71.30;98826.10;1767167;80;21107;-72
2021/05/28 05:36:17;;;;;;;6.87;5.50;;;;;;;14.44;71.07;98822.53;1761267;80;21680;-72
2021/05/28 05:38:43;;;;;;;6.20;5.60;;;;;;;14.51;70.93;98828.44;1764090;80;21040;-70
2021/05/28 05:41:08;;;;;;;6.37;5.58;;;;;;;14.57;70.61;98830.14;1764691;80;21136;-70
2021/05/28 05:43:39;;;;;;;7.12;6.42;;;;;;;14.59;70.57;98827.73;1758506;80;21079;-70
2021/05/28 05:46:05;;;;;;;7.30;5.60;;;;;;;14.55;70.42;98822.35;1760938;80;21127;-71
2021/05/28 05:48:31;;;;;;;6.45;5.53;;;;;;;14.53;70.17;98819.27;1764054;80;21051;-70
2021/05/28 05:50:57;;;;;;;6.72;5.95;;;;;;;14.49;70.17;98826.74;1764017;80;21047;-71
2021/05/28 05:53:23;;;;;;;6.72;6.08;;;;;;;14.46;70.16;98826.80;1762191;80;21045;-70
2021/05/28 05:55:49;;;;;;;7.00;6.30;;;;;;;14.47;70.29;98822.89;1761211;80;21038;-71
2021/05/28 05:58:14;;;;;;;7.08;5.62;;;;;;;14.55;70.31;98827.05;1767757;80;21654;-72
2021/05/28 06:00:40;;;;;;;7.90;6.20;;;;;;;14.63;70.12;98833.32;1762599;80;21146;-70
2021/05/28 06:03:06;;;;;;;6.50;5.80;;;;;;;14.70;69.88;98834.36;1758099;80;21167;-70
2021/05/28 06:05:32;;;;;;;8.03;6.10;;;;;;;14.71;69.58;98841.39;1764943;80;21650;-71
2021/05/28 06:07:57;;;;;;;6.67;5.97;;;;;;;14.69;69.35;98843.16;1763904;80;21421;-72
2021/05/28 06:10:23;;;;;;;7.25;6.33;;;;;;;14.70;69.41;98848.80;1763277;80;21156;-73
2021/05/28 06:12:49;;;;;;;8.70;6.70;;;;;;;14.71;69.37;98849.59;1764179;80;21123;-71
2021/05/28 06:15:15;;;;;;;7.47;6.42;;;;;;;14.74;69.30;98849.50;1765089;80;21107;-71
2021/05/28 06:17:40;;;;;;;7.90;6.30;;;;;;;14.82;69.18;98854.23;1764003;80;21100;-71
2021/05/28 06:20:07;;;;;;;6.58;5.87;;;;;;;14.96;68.69;98856.67;1763959;80;21087;-72
2021/05/28 06:22:32;;;;;;;8.13;6.12;;;;;;;15.07;68.30;98856.45;1763926;80;21581;-70
2021/05/28 06:24:58;;;;;;;7.90;6.12;;;;;;;15.23;68.04;98857.09;1761973;80;21109;-70
2021/05/28 06:27:24;;;;;;;6.58;5.75;;;;;;;15.40;67.45;98864.13;1759164;81;21080;-71
2021/05/28 06:29:50;;;;;;;6.75;6.00;;;;;;;15.47;66.87;98859.11;1755668;80;21029;-71
2021/05/28 06:32:16;;;;;;;7.37;6.42;;;;;;;15.51;66.83;98857.80;1759884;81;21037;-72
2021/05/28 06:34:42;;;;;;;6.28;5.58;;;;;;;15.61;66.77;98854.66;1759918;80;21143;-73
2021/05/28 06:37:07;;;;;;;8.33;5.97;;;;;;;15.74;66.66;98858.30;1751713;81;21064;-74
2021/05/28 06:39:33;;;;;;;7.20;5.40;;;;;;;15.93;66.44;98864.08;1755531;81;21085;-71
2021/05/28 06:41:59;;;;;;;6.60;5.67;;;;;;;16.11;65.89;98875.98;1753875;80;21060;-72
2021/05/28 06:44:25;;;;;;;6.70;5.78;;;;;;;16.29;65.26;98874.17;1759907;80;21278;-71
2021/05/28 06:46:51;;;;;;;6.92;5.80;;;;;;;16.40;65.11;98877.39;1757714;81;21050;-69
2021/05/28 06:49:18;;;;;;;5.63;5.13;;;;;;;16.53;64.52;98878.22;1753490;80;21547;-72
2021/05/28 06:51:45;;;;;;;7.42;5.65;;;;;;;16.64;64.10;98880.07;1724525;81;21032;-72
2021/05/28 06:54:11;;;;;;;6.08;5.28;;;;;;;16.82;63.75;98882.33;1761268;81;20996;-73
2021/05/28 06:56:37;;;;;;;6.08;5.53;;;;;;;17.12;63.26;98876.20;1756137;81;21060;-73
2021/05/28 06:59:05;;;;;;;7.35;5.72;;;;;;;17.40;62.38;98876.55;1750286;81;21113;-71
2021/05/28 07:01:31;;;;;;;6.37;5.33;;;;;;;17.62;62.27;98876.05;1761030;81;21605;-73
2021/05/28 07:04:00;;;;;;;6.47;5.50;;;;;;;17.74;61.37;98867.05;1758378;81;21092;-70
2021/05/28 07:06:24;;;;;;;6.65;5.75;;;;;;;17.81;60.74;98870.80;1752147;81;21065;-71
2021/05/28 07:08:50;;;;;;;6.20;5.60;;;;;;;17.81;60.43;98873.55;1752886;81;21131;-71
2021/05/28 07:11:16;;;;;;;6.35;5.53;;;;;;;17.66;60.18;98883.59;1756776;81;21589;-72
2021/05/28 07:13:41;;;;;;;6.53;5.80;;;;;;;17.54;60.45;98885.72;1757990;81;21041;-72
2021/05/28 07:16:07;;;;;;;6.10;5.50;;;;;;;17.49;60.36;98883.55;1762245;80;21100;-71
2021/05/28 07:18:33;;;;;;;6.35;5.72;;;;;;;17.33;60.40;98888.53;1755435;81;21590;-70
2021/05/28 07:20:59;;;;;;;6.92;6.28;;;;;;;17.11;61.03;98893.12;1751751;80;21716;-71
2021/05/28 07:23:25;;;;;;;6.80;6.20;;;;;;;17.07;61.54;98894.57;1755681;81;21051;-71
2021/05/28 07:25:51;;;;;;;7.60;6.05;;;;;;;17.15;61.07;98892.39;1761401;80;21095;-72
2021/05/28 07:28:17;;;;;;;5.90;5.40;;;;;;;17.15;61.31;98890.41;1772121;80;21129;-73
2021/05/28 07:30:43;;;;;;;6.30;5.67;;;;;;;17.16;61.33;98896.09;1768706;80;21064;-73
2021/05/28 07:33:08;;;;;;;6.37;5.78;;;;;;;17.14;61.47;98897.73;1775746;80;21314;-71
2021/05/28 07:35:34;;;;;;;6.33;5.80;;;;;;;17.12;61.43;98898.76;1769139;80;21084;-71
2021/05/28 07:38:00;;;;;;;7.00;6.40;;;;;;;17.17;61.11;98904.48;1767836;80;20995;-71
2021/05/28 07:40:26;;;;;;;6.72;5.78;;;;;;;17.17;60.82;98898.98;1763296;80;21081;-70
2021/05/28 07:42:52;;;;;;;7.00;6.12;;;;;;;17.18;60.91;98898.38;1766780;80;21231;-70
2021/05/28 07:45:17;;;;;;;7.40;6.30;;;;;;;17.17;61.30;98895.48;1775376;80;21136;-70
2021/05/28 07:47:43;;;;;;;6.97;6.30;;;;;;;17.18;60.87;98897.77;1767395;80;21033;-73
2021/05/28 07:50:11;;;;;;;6.50;5.90;;;;;;;17.03;60.88;98891.17;1762152;81;21104;-72
2021/05/28 07:52:37;;;;;;;6.75;6.10;;;;;;;16.89;61.49;98901.16;1768596;80;21009;-71
2021/05/28 07:55:03;;;;;;;7.35;6.70;;;;;;;16.82;61.85;98896.05;1765880;80;21124;-70
2021/05/28 07:57:29;;;;;;;11.25;7.87;;;;;;;16.78;62.00;98896.77;1748402;80;21031;-72
2021/05/28 07:59:55;;;;;;;8.68;7.87;;;;;;;16.86;62.49;98894.59;1764191;80;21088;-73
2021/05/28 08:02:21;;;;;;;9.58;8.50;;;;;;;16.78;62.55;98896.00;1768073;80;21036;-71
2021/05/28 08:04:47;;;;;;;8.93;8.08;;;;;;;16.72;62.98;98890.22;1741586;80;21028;-71
2021/05/28 08:07:13;;;;;;;9.23;8.35;;;;;;;16.69;62.97;98891.09;1760595;80;21079;-70
2021/05/28 08:09:39;;;;;;;9.38;8.48;;;;;;;16.75;63.19;98895.44;1769665;80;21578;-69
2021/05/28 08:12:05;;;;;;;9.08;8.28;;;;;;;16.82;63.19;98896.05;1761617;80;21007;-73
2021/05/28 08:14:31;;;;;;;9.10;8.20;;;;;;;16.90;62.83;98897.99;1772726;80;21126;-73
2021/05/28 08:16:57;;;;;;;9.90;9.00;;;;;;;17.00;62.90;98901.65;1749224;80;21075;-73
2021/05/28 08:19:22;;;;;;;9.70;8.80;;;;;;;17.20;62.63;98892.62;1762960;80;21048;-72
2021/05/28 08:21:49;;;;;;;9.95;8.95;;;;;;;17.40;62.63;98897.91;1764857;80;21075;-74
2021/05/28 08:24:15;;;;;;;10.55;9.55;;;;;;;17.75;61.95;98897.41;1762675;80;22206;-73
2021/05/28 08:26:41;;;;;;;9.98;9.08;;;;;;;17.97;61.10;98889.28;1749364;81;21065;-71
2021/05/28 08:29:08;;;;;;;9.93;9.03;;;;;;;18.01;61.13;98893.30;1776470;80;21557;-71
2021/05/28 08:31:34;;;;;;;10.48;9.48;;;;;;;18.05;60.71;98885.70;1751160;80;21097;-71
2021/05/28 08:34:00;;;;;;;9.38;8.55;;;;;;;18.20;61.16;98884.63;1745611;81;21068;-72
2021/05/28 08:36:26;;;;;;;9.73;8.83;;;;;;;18.52;60.12;98885.50;1745913;81;21104;-73
2021/05/28 08:38:51;;;;;;;9.85;8.90;;;;;;;18.51;59.96;98883.97;1755969;81;21019;-71
2021/05/28 08:41:17;;;;;;;9.28;8.38;;;;;;;18.60;59.88;98879.30;1745755;82;21146;-71
2021/05/28 08:43:43;;;;;;;9.58;8.78;;;;;;;18.63;59.64;98885.30;1765143;81;21072;-71
2021/05/28 08:46:11;;;;;;;9.40;8.50;;;;;;;18.58;59.66;98885.11;1776795;80;21104;-73
2021/05/28 08:48:37;;;;;;;8.85;8.00;;;;;;;18.66;59.98;98879.52;1733346;81;21075;-73
2021/05/28 08:51:02;;;;;;;8.60;7.80;;;;;;;18.91;59.39;98884.14;1746110;80;21115;-72
2021/05/28 08:53:28;;;;;;;11.05;8.38;;;;;;;18.92;58.96;98891.17;1743729;81;21004;-72
2021/05/28 08:55:54;;;;;;;8.78;7.90;;;;;;;19.11;58.71;98883.03;1746134;81;21761;-73
2021/05/28 08:58:20;;;;;;;11.10;8.43;;;;;;;19.36;58.08;98884.84;1758609;81;21633;-71
2021/05/28 09:00:46;;;;;;;8.08;7.42;;;;;;;19.57;57.65;98885.39;1762188;80;21104;-72
2021/05/28 09:03:24;;;;;;;8.50;7.67;;;;;;;19.84;57.59;98888.11;1763853;80;21150;-71
2021/05/28 09:05:50;;;;;;;8.30;7.50;;;;;;;20.03;56.43;98886.92;1753686;80;21048;-72
2021/05/28 09:08:29;;;;;;;7.60;7.00;;;;;;;19.84;56.54;98885.36;1746020;81;21101;-72
2021/05/28 09:11:19;;;;;;;8.00;7.20;;;;;;;19.96;56.36;98883.08;1745901;80;21051;-71
2021/05/28 09:13:49;;;;;;;10.32;7.10;;;;;;;20.16;55.89;98886.77;1690407;83;21686;-71
2021/05/28 09:16:16;;;;;;;7.40;6.70;;;;;;;20.17;55.25;98892.46;1663563;84;21437;-69
2021/05/28 09:18:53;;;;;;;7.65;6.95;;;;;;;20.20;54.69;98886.64;1662985;84;21380;-70
2021/05/28 09:21:28;;;;;;;7.45;6.75;;;;;;;20.22;55.58;98886.97;1657243;85;21245;-69
2021/05/28 09:23:52;;;;;;;7.00;6.03;;;;;;;20.50;54.87;98887.12;1653517;84;21078;-71
2021/05/28 09:26:20;;;;;;;7.55;6.80;;;;;;;20.69;54.23;98884.39;1668632;86;21407;-70
2021/05/28 09:28:49;;;;;;;7.70;7.08;;;;;;;20.92;53.84;98889.87;1674864;84;21067;-71
2021/05/28 09:31:17;;;;;;;8.08;6.72;;;;;;;20.94;53.06;98892.31;1653942;86;21074;-71
2021/05/28 09:33:45;;;;;;;7.92;7.20;;;;;;;20.94;53.07;98887.41;1668503;84;21067;-71
2021/05/28 09:36:20;;;;;;;7.72;7.03;;;;;;;21.25;52.67;98889.94;1634034;84;21139;-72
2021/05/28 09:39:08;;;;;;;8.40;7.67;;;;;;;21.60;52.33;98889.53;1663719;84;21023;-71
2021/05/28 09:41:58;;;;;;;7.83;6.97;;;;;;;21.73;51.05;98887.33;1669068;84;21126;-72
2021/05/28 09:44:25;;;;;;;7.45;6.78;;;;;;;21.78;51.31;98884.55;1660824;84;21051;-72
2021/05/28 09:47:06;;;;;;;7.10;6.50;;;;;;;22.11;50.79;98892.17;1657157;86;21683;-74
2021/05/28 09:49:37;;;;;;;6.67;6.12;;;;;;;22.04;49.69;98890.38;1670390;84;20987;-72
2021/05/28 09:52:18;;;;;;;8.33;6.90;;;;;;;21.61;50.31;98889.08;1676141;84;21095;-72
2021/05/28 09:55:05;;;;;;;7.00;6.30;;;;;;;21.40;51.29;98877.03;1664185;84;21031;-72
2021/05/28 09:57:39;;;;;;;6.70;6.10;;;;;;;21.39;51.59;98878.87;1670206;84;21074;-72
2021/05/28 10:00:23;;;;;;;7.58;6.22;;;;;;;21.55;51.23;98881.25;1671512;84;21572;-71
2021/05/28 10:03:08;;;;;;;6.70;5.65;;;;;;;21.75;50.67;98877.95;1647171;84;21067;-71
2021/05/28 10:05:35;;;;;;;6.20;5.60;;;;;;;21.88;50.28;98888.17;1671590;84;21078;-72
2021/05/28 10:08:01;;;;;;;5.90;5.30;;;;;;;22.21;49.33;98890.15;1642812;86;21078;-73
2021/05/28 10:10:27;;;;;;;5.83;5.20;;;;;;;22.06;48.63;98877.61;1669372;86;21034;-71
2021/05/28 10:12:52;;;;;;;6.80;5.05;;;;;;;21.99;48.88;98872.45;1660716;85;21063;-72
2021/05/28 10:15:18;;;;;;;5.50;4.72;;;;;;;22.32;47.94;98877.16;1657763;85;21075;-71
2021/05/28 10:17:44;;;;;;;4.50;3.85;;;;;;;22.60;47.09;98874.92;1631724;85;21691;-72
2021/05/28 10:20:10;;;;;;;3.95;3.37;;;;;;;22.87;45.52;98873.15;1654179;85;21083;-73
2021/05/28 10:22:36;;;;;;;4.03;3.35;;;;;;;22.89;43.96;98881.72;1663084;85;21122;-72
2021/05/28 10:25:05;;;;;;;5.50;3.90;;;;;;;22.73;43.80;98878.20;1690298;85;21088;-71
2021/05/28 10:27:29;;;;;;;4.58;3.92;;;;;;;22.60;43.91;98880.47;1666203;86;21145;-72
2021/05/28 10:29:55;;;;;;;4.20;3.80;;;;;;;22.31;44.10;98873.61;1641106;87;21080;-73
2021/05/28 10:32:21;;;;;;;4.90;4.22;;;;;;;22.14;45.28;98871.11;1641238;87;21171;-72
2021/05/28 10:35:14;;;;;;;4.85;4.30;;;;;;;22.09;45.39;98868.98;1639949;86;21052;-72
2021/05/28 10:37:43;;;;;;;4.67;4.10;;;;;;;22.06;45.58;98871.31;1639866;86;21092;-71
2021/05/28 10:40:28;;;;;;;4.58;4.10;;;;;;;21.93;45.42;98864.03;1637849;86;21100;-72
2021/05/28 10:43:04;;;;;;;5.15;4.47;;;;;;;21.89;45.72;98866.20;1661579;85;21095;-72
2021/05/28 10:46:02;;;;;;;4.78;4.28;;;;;;;21.76;45.52;98859.37;1637949;87;21095;-72
2021/05/28 10:48:41;;;;;;;4.90;4.28;;;;;;;21.68;45.73;98855.55;1631848;86;21236;-72
2021/05/28 10:51:22;;;;;;;5.22;4.30;;;;;;;21.83;46.13;98862.55;1641241;87;21029;-72
2021/05/28 10:53:55;;;;;;;4.12;3.83;;;;;;;21.85;45.85;98861.47;1659770;85;21066;-72
2021/05/28 10:56:22;;;;;;;4.50;4.00;;;;;;;22.14;45.29;98853.13;1647807;86;21457;-73
2021/05/28 10:58:58;;;;;;;4.45;3.80;;;;;;;22.50;45.34;98851.33;1649124;85;21083;-72
2021/05/28 11:01:52;;;;;;;5.30;3.75;;;;;;;22.78;45.26;98836.60;1659945;85;21091;-72
2021/05/28 11:04:24;;;;;;;3.87;3.27;;;;;;;23.28;43.43;98840.11;1655745;85;21047;-73
2021/05/28 11:07:00;;;;;;;3.30;3.10;;;;;;;23.51;42.75;98840.56;1669244;85;21032;-72
2021/05/28 11:09:48;;;;;;;3.87;3.17;;;;;;;23.43;42.43;98842.97;1629921;86;21036;-71
2021/05/28 11:12:14;;;;;;;;;;;;;;;23.20;42.94;98846.03;1617279;87;21108;-72
2021/05/28 11:15:08;;;;;;;4.25;3.27;;;;;;;23.04;43.58;98838.22;1636206;86;20179;-71
2021/05/28 11:18:02;;;;;;;3.60;3.27;;;;;;;23.09;43.62;98834.02;1638949;85;21070;-72
2021/05/28 11:20:36;;;;;;;3.87;3.55;;;;;;;23.12;43.60;98831.04;1655827;85;21067;-73
2021/05/28 11:23:14;;;;;;;4.47;3.80;;;;;;;23.00;43.39;98832.12;1650311;85;21064;-71
2021/05/28 11:25:51;;;;;;;4.47;3.80;;;;;;;22.98;44.38;98834.59;1658926;85;21027;-72
2021/05/28 11:28:17;;;;;;;4.05;3.70;;;;;;;22.85;43.81;98826.55;1655530;85;21075;-71
2021/05/28 11:30:48;;;;;;;4.12;3.40;;;;;;;22.82;43.83;98827.50;1652468;85;21019;-72
2021/05/28 11:33:35;;;;;;;5.83;3.65;;;;;;;22.89;44.08;98812.50;1641213;85;21539;-72